sensor_id;sensor_type;location;lat;lon;timestamp;pressure;altitude;pressure_sealevel;temperature;humidity
72548;BME280;60570;50.848;6.776;2023-09-08T00:00:57;100692.94;;;23.58;58.55
72548;BME280;60570;50.848;6.776;2023-09-08T00:02:00;100692.13;;;23.57;58.70
72548;BME280;60570;50.848;6.776;2023-09-08T00:03:01;100695.78;;;23.58;58.76
72548;BME280;60570;50.848;6.776;2023-09-08T00:04:02;100682.84;;;23.57;58.33
72548;BME280;60570;50.848;6.776;2023-09-08T00:05:04;100684.84;;;23.56;58.72
72548;BME280;60570;50.848;6.776;2023-09-08T00:06:06;100690.53;;;23.56;58.35
72548;BME280;60570;50.848;6.776;2023-09-08T00:07:06;100690.94;;;23.55;58.58
72548;BME280;60570;50.848;6.776;2023-09-08T00:08:07;100687.31;;;23.54;58.61
72548;BME280;60570;50.848;6.776;2023-09-08T00:09:08;100692.16;;;23.54;58.69
72548;BME280;60570;50.848;6.776;2023-09-08T00:10:09;100687.31;;;23.54;58.37
72548;BME280;60570;50.848;6.776;2023-09-08T00:11:11;100682.84;;;23.53;58.29
72548;BME280;60570;50.848;6.776;2023-09-08T00:12:12;100683.66;;;23.54;58.33
72548;BME280;60570;50.848;6.776;2023-09-08T00:13:13;100679.22;;;23.53;58.50
72548;BME280;60570;50.848;6.776;2023-09-08T00:14:14;100686.91;;;23.52;58.33
72548;BME280;60570;50.848;6.776;2023-09-08T00:15:15;100686.09;;;23.52;58.83
72548;BME280;60570;50.848;6.776;2023-09-08T00:16:16;100687.34;;;23.51;58.73
72548;BME280;60570;50.848;6.776;2023-09-08T00:17:18;100685.28;;;23.51;58.75
72548;BME280;60570;50.848;6.776;2023-09-08T00:18:20;100687.34;;;23.51;58.50
72548;BME280;60570;50.848;6.776;2023-09-08T00:19:20;100684.50;;;23.51;58.68
72548;BME280;60570;50.848;6.776;2023-09-08T00:20:23;100686.53;;;23.50;58.80
72548;BME280;60570;50.848;6.776;2023-09-08T00:21:23;100689.78;;;23.49;58.46
72548;BME280;60570;50.848;6.776;2023-09-08T00:22:25;100683.31;;;23.48;58.66
72548;BME280;60570;50.848;6.776;2023-09-08T00:23:25;100681.69;;;23.47;58.72
72548;BME280;60570;50.848;6.776;2023-09-08T00:24:28;100678.84;;;23.47;58.80
72548;BME280;60570;50.848;6.776;2023-09-08T00:25:28;100683.72;;;23.47;58.82
72548;BME280;60570;50.848;6.776;2023-09-08T00:26:30;100688.59;;;23.46;58.91
72548;BME280;60570;50.848;6.776;2023-09-08T00:27:31;100677.25;;;23.46;58.58
72548;BME280;60570;50.848;6.776;2023-09-08T00:28:32;100684.16;;;23.45;58.56
72548;BME280;60570;50.848;6.776;2023-09-08T00:29:32;100677.66;;;23.45;58.86
72548;BME280;60570;50.848;6.776;2023-09-08T00:30:33;100682.53;;;23.44;58.54
72548;BME280;60570;50.848;6.776;2023-09-08T00:31:34;100676.84;;;23.44;58.68
72548;BME280;60570;50.848;6.776;2023-09-08T00:32:36;100684.56;;;23.44;58.87
72548;BME280;60570;50.848;6.776;2023-09-08T00:33:38;100683.75;;;23.43;59.02
72548;BME280;60570;50.848;6.776;2023-09-08T00:34:40;100679.31;;;23.42;58.61
72548;BME280;60570;50.848;6.776;2023-09-08T00:35:43;100676.88;;;23.41;58.83
72548;BME280;60570;50.848;6.776;2023-09-08T00:36:44;100680.13;;;23.43;58.99
72548;BME280;60570;50.848;6.776;2023-09-08T00:37:45;100681.31;;;23.42;58.54
72548;BME280;60570;50.848;6.776;2023-09-08T00:38:46;100679.72;;;23.41;58.66
72548;BME280;60570;50.848;6.776;2023-09-08T00:39:47;100680.94;;;23.40;58.72
72548;BME280;60570;50.848;6.776;2023-09-08T00:40:48;100676.50;;;23.39;58.69
72548;BME280;60570;50.848;6.776;2023-09-08T00:41:49;100687.84;;;23.39;59.02
72548;BME280;60570;50.848;6.776;2023-09-08T00:42:50;100681.38;;;23.38;59.08
72548;BME280;60570;50.848;6.776;2023-09-08T00:43:51;100676.13;;;23.37;58.86
72548;BME280;60570;50.848;6.776;2023-09-08T00:44:52;100683.00;;;23.36;58.63
72548;BME280;60570;50.848;6.776;2023-09-08T00:45:52;100686.66;;;23.36;58.83
72548;BME280;60570;50.848;6.776;2023-09-08T00:46:55;100674.50;;;23.36;58.88
72548;BME280;60570;50.848;6.776;2023-09-08T00:47:57;100680.59;;;23.34;59.05
72548;BME280;60570;50.848;6.776;2023-09-08T00:48:59;100682.59;;;23.34;59.18
72548;BME280;60570;50.848;6.776;2023-09-08T00:50:01;100678.16;;;23.33;59.04
72548;BME280;60570;50.848;6.776;2023-09-08T00:51:02;100683.84;;;23.33;58.86
72548;BME280;60570;50.848;6.776;2023-09-08T00:52:05;100683.03;;;23.32;58.89
72548;BME280;60570;50.848;6.776;2023-09-08T00:53:06;100678.59;;;23.31;59.01
72548;BME280;60570;50.848;6.776;2023-09-08T00:54:07;100687.09;;;23.31;59.01
72548;BME280;60570;50.848;6.776;2023-09-08T00:55:09;100687.50;;;23.30;58.74
72548;BME280;60570;50.848;6.776;2023-09-08T00:56:09;100696.00;;;23.30;59.08
72548;BME280;60570;50.848;6.776;2023-09-08T00:57:12;100691.53;;;23.29;59.13
72548;BME280;60570;50.848;6.776;2023-09-08T00:58:12;100685.06;;;23.28;58.91
72548;BME280;60570;50.848;6.776;2023-09-08T00:59:14;100691.97;;;23.27;58.77
72548;BME280;60570;50.848;6.776;2023-09-08T01:00:14;100689.94;;;23.28;58.94
72548;BME280;60570;50.848;6.776;2023-09-08T01:01:17;100681.03;;;23.26;59.19
72548;BME280;60570;50.848;6.776;2023-09-08T01:02:17;100681.81;;;23.26;59.10
72548;BME280;60570;50.848;6.776;2023-09-08T01:03:20;100684.66;;;23.26;59.04
72548;BME280;60570;50.848;6.776;2023-09-08T01:04:21;100682.25;;;23.25;59.21
72548;BME280;60570;50.848;6.776;2023-09-08T01:05:22;100681.44;;;23.24;59.03
72548;BME280;60570;50.848;6.776;2023-09-08T01:06:23;100685.50;;;23.23;59.13
72548;BME280;60570;50.848;6.776;2023-09-08T01:07:25;100677.81;;;23.24;59.14
72548;BME280;60570;50.848;6.776;2023-09-08T01:08:27;100680.66;;;23.24;58.86
72548;BME280;60570;50.848;6.776;2023-09-08T01:09:29;100676.63;;;23.21;58.86
72548;BME280;60570;50.848;6.776;2023-09-08T01:10:30;100678.63;;;23.21;59.17
72548;BME280;60570;50.848;6.776;2023-09-08T01:11:32;100678.22;;;23.22;58.79
72548;BME280;60570;50.848;6.776;2023-09-08T01:12:32;100678.63;;;23.21;59.06
72548;BME280;60570;50.848;6.776;2023-09-08T01:13:35;100681.47;;;23.21;58.89
72548;BME280;60570;50.848;6.776;2023-09-08T01:14:35;100682.72;;;23.20;59.06
72548;BME280;60570;50.848;6.776;2023-09-08T01:15:37;100674.22;;;23.20;59.20
72548;BME280;60570;50.848;6.776;2023-09-08T01:16:37;100679.06;;;23.19;59.05
72548;BME280;60570;50.848;6.776;2023-09-08T01:17:40;100680.28;;;23.18;59.15
72548;BME280;60570;50.848;6.776;2023-09-08T01:18:42;100683.09;;;23.18;58.77
72548;BME280;60570;50.848;6.776;2023-09-08T01:19:45;100684.34;;;23.17;59.03
72548;BME280;60570;50.848;6.776;2023-09-08T01:20:55;100686.38;;;23.16;58.81
72548;BME280;60570;50.848;6.776;2023-09-08T01:22:07;100683.53;;;23.16;59.20
72548;BME280;60570;50.848;6.776;2023-09-08T01:23:15;100688.41;;;23.16;59.02
72548;BME280;60570;50.848;6.776;2023-09-08T01:24:27;100683.94;;;23.15;59.18
72548;BME280;60570;50.848;6.776;2023-09-08T01:25:31;100683.13;;;23.14;58.89
72548;BME280;60570;50.848;6.776;2023-09-08T01:26:35;100687.22;;;23.13;59.16
72548;BME280;60570;50.848;6.776;2023-09-08T01:27:36;100683.56;;;23.13;58.79
72548;BME280;60570;50.848;6.776;2023-09-08T01:28:37;100681.16;;;23.11;58.99
72548;BME280;60570;50.848;6.776;2023-09-08T01:29:40;100689.66;;;23.11;58.92
72548;BME280;60570;50.848;6.776;2023-09-08T01:30:41;100686.81;;;23.11;59.03
72548;BME280;60570;50.848;6.776;2023-09-08T01:31:43;100685.19;;;23.10;59.04
72548;BME280;60570;50.848;6.776;2023-09-08T01:32:44;100685.19;;;23.10;58.93
72548;BME280;60570;50.848;6.776;2023-09-08T01:33:45;100681.56;;;23.10;58.86
72548;BME280;60570;50.848;6.776;2023-09-08T01:34:47;100681.56;;;23.10;59.03
72548;BME280;60570;50.848;6.776;2023-09-08T01:35:47;100674.28;;;23.09;58.85
72548;BME280;60570;50.848;6.776;2023-09-08T01:36:49;100682.78;;;23.09;58.86
72548;BME280;60570;50.848;6.776;2023-09-08T01:37:50;100677.09;;;23.09;59.22
72548;BME280;60570;50.848;6.776;2023-09-08T01:38:52;100683.63;;;23.06;58.89
72548;BME280;60570;50.848;6.776;2023-09-08T01:39:52;100677.53;;;23.07;59.24
72548;BME280;60570;50.848;6.776;2023-09-08T01:40:54;100684.41;;;23.06;59.13
72548;BME280;60570;50.848;6.776;2023-09-08T01:41:55;100669.44;;;23.06;58.91
72548;BME280;60570;50.848;6.776;2023-09-08T01:42:56;100675.13;;;23.06;59.21
72548;BME280;60570;50.848;6.776;2023-09-08T01:43:58;100671.91;;;23.04;59.16
72548;BME280;60570;50.848;6.776;2023-09-08T01:44:58;100665.41;;;23.03;59.23
72548;BME280;60570;50.848;6.776;2023-09-08T01:46:00;100674.72;;;23.04;59.11
72548;BME280;60570;50.848;6.776;2023-09-08T01:47:00;100667.44;;;23.03;58.81
72548;BME280;60570;50.848;6.776;2023-09-08T01:48:02;100669.47;;;23.02;59.01
72548;BME280;60570;50.848;6.776;2023-09-08T01:49:02;100668.66;;;23.02;58.84
72548;BME280;60570;50.848;6.776;2023-09-08T01:50:04;100663.81;;;23.02;59.17
72548;BME280;60570;50.848;6.776;2023-09-08T01:51:05;100659.78;;;23.00;59.14
72548;BME280;60570;50.848;6.776;2023-09-08T01:52:06;100658.97;;;22.99;59.30
72548;BME280;60570;50.848;6.776;2023-09-08T01:53:07;100662.63;;;23.00;59.22
72548;BME280;60570;50.848;6.776;2023-09-08T01:54:08;100660.59;;;23.00;58.87
72548;BME280;60570;50.848;6.776;2023-09-08T01:55:10;100660.19;;;22.98;59.08
72548;BME280;60570;50.848;6.776;2023-09-08T01:56:13;100663.03;;;22.98;59.17
72548;BME280;60570;50.848;6.776;2023-09-08T01:57:14;100655.75;;;22.97;59.25
72548;BME280;60570;50.848;6.776;2023-09-08T01:58:15;100660.59;;;22.97;59.00
72548;BME280;60570;50.848;6.776;2023-09-08T01:59:16;100659.81;;;22.96;58.97
72548;BME280;60570;50.848;6.776;2023-09-08T02:00:17;100656.97;;;22.96;59.24
72548;BME280;60570;50.848;6.776;2023-09-08T02:01:17;100652.50;;;22.95;58.93
72548;BME280;60570;50.848;6.776;2023-09-08T02:02:19;100657.78;;;22.93;59.24
72548;BME280;60570;50.848;6.776;2023-09-08T02:03:19;100661.44;;;22.94;59.05
72548;BME280;60570;50.848;6.776;2023-09-08T02:04:21;100656.19;;;22.92;59.01
72548;BME280;60570;50.848;6.776;2023-09-08T02:05:21;100659.03;;;22.92;59.30
72548;BME280;60570;50.848;6.776;2023-09-08T02:06:23;100654.56;;;22.91;59.28
72548;BME280;60570;50.848;6.776;2023-09-08T02:07:23;100650.53;;;22.92;59.28
72548;BME280;60570;50.848;6.776;2023-09-08T02:08:25;100648.91;;;22.91;58.92
72548;BME280;60570;50.848;6.776;2023-09-08T02:09:29;100652.97;;;22.90;58.95
72548;BME280;60570;50.848;6.776;2023-09-08T02:10:31;100655.00;;;22.90;59.23
72548;BME280;60570;50.848;6.776;2023-09-08T02:11:33;100657.00;;;22.89;58.95
72548;BME280;60570;50.848;6.776;2023-09-08T02:12:35;100658.25;;;22.88;59.13
72548;BME280;60570;50.848;6.776;2023-09-08T02:13:35;100653.34;;;22.89;58.97
72548;BME280;60570;50.848;6.776;2023-09-08T02:14:36;100656.63;;;22.87;58.99
72548;BME280;60570;50.848;6.776;2023-09-08T02:15:38;100655.00;;;22.86;59.14
72548;BME280;60570;50.848;6.776;2023-09-08T02:16:40;100661.50;;;22.87;59.13
72548;BME280;60570;50.848;6.776;2023-09-08T02:17:40;100657.03;;;22.86;58.98
72548;BME280;60570;50.848;6.776;2023-09-08T02:18:42;100647.72;;;22.85;59.00
72548;BME280;60570;50.848;6.776;2023-09-08T02:19:42;100656.22;;;22.85;59.27
72548;BME280;60570;50.848;6.776;2023-09-08T02:20:44;100653.38;;;22.85;59.15
72548;BME280;60570;50.848;6.776;2023-09-08T02:21:44;100650.97;;;22.84;59.22
72548;BME280;60570;50.848;6.776;2023-09-08T02:22:45;100650.16;;;22.83;59.37
72548;BME280;60570;50.848;6.776;2023-09-08T02:23:48;100656.25;;;22.82;59.37
72548;BME280;60570;50.848;6.776;2023-09-08T02:24:48;100651.41;;;22.82;59.31
72548;BME280;60570;50.848;6.776;2023-09-08T02:25:52;100652.59;;;22.81;58.99
72548;BME280;60570;50.848;6.776;2023-09-08T02:26:53;100655.44;;;22.81;59.16
72548;BME280;60570;50.848;6.776;2023-09-08T02:27:55;100654.66;;;22.81;59.32
72548;BME280;60570;50.848;6.776;2023-09-08T02:28:55;100648.19;;;22.80;59.00
72548;BME280;60570;50.848;6.776;2023-09-08T02:29:57;100650.19;;;22.80;59.20
72548;BME280;60570;50.848;6.776;2023-09-08T02:30:57;100649.38;;;22.79;59.17
72548;BME280;60570;50.848;6.776;2023-09-08T02:31:59;100647.78;;;22.78;59.35
72548;BME280;60570;50.848;6.776;2023-09-08T02:32:59;100651.44;;;22.79;59.13
72548;BME280;60570;50.848;6.776;2023-09-08T02:34:03;100649.81;;;22.78;59.08
72548;BME280;60570;50.848;6.776;2023-09-08T02:35:03;100644.13;;;22.78;59.16
72548;BME280;60570;50.848;6.776;2023-09-08T02:36:05;100653.06;;;22.76;59.16
72548;BME280;60570;50.848;6.776;2023-09-08T02:37:06;100643.75;;;22.76;59.39
72548;BME280;60570;50.848;6.776;2023-09-08T02:38:07;100651.44;;;22.75;59.13
72548;BME280;60570;50.848;6.776;2023-09-08T02:39:08;100643.34;;;22.74;59.09
72548;BME280;60570;50.848;6.776;2023-09-08T02:40:09;100644.16;;;22.74;59.44
72548;BME280;60570;50.848;6.776;2023-09-08T02:41:11;100651.06;;;22.73;59.45
72548;BME280;60570;50.848;6.776;2023-09-08T02:42:12;100650.25;;;22.73;59.21
72548;BME280;60570;50.848;6.776;2023-09-08T02:43:14;100651.47;;;22.72;59.30
72548;BME280;60570;50.848;6.776;2023-09-08T02:44:14;100654.28;;;22.72;59.28
72548;BME280;60570;50.848;6.776;2023-09-08T02:45:16;100653.50;;;22.71;59.11
72548;BME280;60570;50.848;6.776;2023-09-08T02:46:16;100658.34;;;22.71;59.40
72548;BME280;60570;50.848;6.776;2023-09-08T02:47:18;100654.72;;;22.70;59.21
72548;BME280;60570;50.848;6.776;2023-09-08T02:48:18;100660.38;;;22.70;59.22
72548;BME280;60570;50.848;6.776;2023-09-08T02:49:20;100663.63;;;22.69;59.27
72548;BME280;60570;50.848;6.776;2023-09-08T02:50:21;100649.47;;;22.69;59.21
72548;BME280;60570;50.848;6.776;2023-09-08T02:51:22;100645.81;;;22.68;59.23
72548;BME280;60570;50.848;6.776;2023-09-08T02:52:23;100653.50;;;22.68;59.12
72548;BME280;60570;50.848;6.776;2023-09-08T02:53:24;100656.75;;;22.66;59.52
72548;BME280;60570;50.848;6.776;2023-09-08T02:54:28;100655.94;;;22.66;59.40
72548;BME280;60570;50.848;6.776;2023-09-08T02:55:30;100660.81;;;22.65;59.23
72548;BME280;60570;50.848;6.776;2023-09-08T02:56:30;100655.16;;;22.65;59.33
72548;BME280;60570;50.848;6.776;2023-09-08T02:57:33;100652.72;;;22.64;59.12
72548;BME280;60570;50.848;6.776;2023-09-08T02:58:34;100655.53;;;22.64;59.22
72548;BME280;60570;50.848;6.776;2023-09-08T03:00:36;100646.28;;;22.60;59.10
72548;BME280;60570;50.848;6.776;2023-09-08T03:01:37;100637.78;;;22.60;59.58
72548;BME280;60570;50.848;6.776;2023-09-08T03:02:38;100647.50;;;22.59;59.16
72548;BME280;60570;50.848;6.776;2023-09-08T03:03:39;100651.97;;;22.60;59.55
72548;BME280;60570;50.848;6.776;2023-09-08T03:04:40;100653.97;;;22.59;59.23
72548;BME280;60570;50.848;6.776;2023-09-08T03:05:42;100655.19;;;22.58;59.35
72548;BME280;60570;50.848;6.776;2023-09-08T03:06:42;100644.28;;;22.57;59.49
72548;BME280;60570;50.848;6.776;2023-09-08T03:07:43;100649.09;;;22.56;59.18
72548;BME280;60570;50.848;6.776;2023-09-08T03:08:47;100651.91;;;22.56;59.21
72548;BME280;60570;50.848;6.776;2023-09-08T03:09:47;100653.97;;;22.56;59.16
72548;BME280;60570;50.848;6.776;2023-09-08T03:10:49;100653.97;;;22.56;59.29
72548;BME280;60570;50.848;6.776;2023-09-08T03:11:49;100651.53;;;22.54;59.14
72548;BME280;60570;50.848;6.776;2023-09-08T03:12:52;100648.69;;;22.54;59.37
72548;BME280;60570;50.848;6.776;2023-09-08T03:13:53;100650.75;;;22.54;59.38
72548;BME280;60570;50.848;6.776;2023-09-08T03:14:54;100649.94;;;22.53;59.43
72548;BME280;60570;50.848;6.776;2023-09-08T03:15:55;100648.31;;;22.52;59.35
72548;BME280;60570;50.848;6.776;2023-09-08T03:16:56;100643.88;;;22.51;59.60
72548;BME280;60570;50.848;6.776;2023-09-08T03:17:58;100647.53;;;22.52;59.36
72548;BME280;60570;50.848;6.776;2023-09-08T03:18:58;100639.41;;;22.50;59.35
72548;BME280;60570;50.848;6.776;2023-09-08T03:20:00;100647.13;;;22.50;59.21
72548;BME280;60570;50.848;6.776;2023-09-08T03:21:00;100644.28;;;22.50;59.47
72548;BME280;60570;50.848;6.776;2023-09-08T03:22:08;100645.50;;;22.49;59.43
72548;BME280;60570;50.848;6.776;2023-09-08T03:23:09;100642.66;;;22.49;59.48
72548;BME280;60570;50.848;6.776;2023-09-08T03:24:10;100643.91;;;22.48;59.46
72548;BME280;60570;50.848;6.776;2023-09-08T03:25:11;100647.50;;;22.48;59.53
72548;BME280;60570;50.848;6.776;2023-09-08T03:26:14;100643.09;;;22.47;59.32
72548;BME280;60570;50.848;6.776;2023-09-08T03:27:14;100647.13;;;22.46;59.49
72548;BME280;60570;50.848;6.776;2023-09-08T03:28:17;100645.53;;;22.45;59.51
72548;BME280;60570;50.848;6.776;2023-09-08T03:29:18;100644.28;;;22.46;59.42
72548;BME280;60570;50.848;6.776;2023-09-08T03:30:19;100642.69;;;22.45;59.48
72548;BME280;60570;50.848;6.776;2023-09-08T03:31:20;100646.75;;;22.44;59.54
72548;BME280;60570;50.848;6.776;2023-09-08T03:32:21;100634.63;;;22.44;59.52
72548;BME280;60570;50.848;6.776;2023-09-08T03:33:22;100638.66;;;22.43;59.45
72548;BME280;60570;50.848;6.776;2023-09-08T03:34:22;100635.03;;;22.42;59.38
72548;BME280;60570;50.848;6.776;2023-09-08T03:35:23;100634.22;;;22.42;59.37
72548;BME280;60570;50.848;6.776;2023-09-08T03:36:24;100636.25;;;22.41;59.59
72548;BME280;60570;50.848;6.776;2023-09-08T03:37:25;100638.25;;;22.41;59.69
72548;BME280;60570;50.848;6.776;2023-09-08T03:38:26;100643.91;;;22.41;59.72
72548;BME280;60570;50.848;6.776;2023-09-08T03:39:28;100643.13;;;22.40;59.46
72548;BME280;60570;50.848;6.776;2023-09-08T03:40:28;100643.13;;;22.40;59.73
72548;BME280;60570;50.848;6.776;2023-09-08T03:41:30;100642.72;;;22.38;59.82
72548;BME280;60570;50.848;6.776;2023-09-08T03:42:30;100644.34;;;22.39;59.48
72548;BME280;60570;50.848;6.776;2023-09-08T03:43:35;100638.28;;;22.37;59.60
72548;BME280;60570;50.848;6.776;2023-09-08T03:44:35;100639.91;;;22.38;59.82
72548;BME280;60570;50.848;6.776;2023-09-08T03:45:37;100645.97;;;22.37;59.71
72548;BME280;60570;50.848;6.776;2023-09-08T03:46:37;100640.28;;;22.37;59.38
72548;BME280;60570;50.848;6.776;2023-09-08T03:47:39;100641.53;;;22.36;59.82
72548;BME280;60570;50.848;6.776;2023-09-08T03:48:39;100634.25;;;22.35;59.66
72548;BME280;60570;50.848;6.776;2023-09-08T03:49:41;100637.06;;;22.35;59.91
72548;BME280;60570;50.848;6.776;2023-09-08T03:50:41;100638.31;;;22.34;59.77
72548;BME280;60570;50.848;6.776;2023-09-08T03:51:45;100639.13;;;22.34;59.67
72548;BME280;60570;50.848;6.776;2023-09-08T03:52:45;100638.31;;;22.34;59.92
72548;BME280;60570;50.848;6.776;2023-09-08T03:53:47;100639.50;;;22.33;59.81
72548;BME280;60570;50.848;6.776;2023-09-08T03:54:47;100632.25;;;22.32;59.77
72548;BME280;60570;50.848;6.776;2023-09-08T03:55:49;100635.06;;;22.32;59.82
72548;BME280;60570;50.848;6.776;2023-09-08T03:56:49;100634.25;;;22.31;59.62
72548;BME280;60570;50.848;6.776;2023-09-08T03:57:51;100634.25;;;22.31;59.66
72548;BME280;60570;50.848;6.776;2023-09-08T03:58:53;100636.31;;;22.31;59.83
72548;BME280;60570;50.848;6.776;2023-09-08T03:59:54;100628.19;;;22.29;59.77
72548;BME280;60570;50.848;6.776;2023-09-08T04:00:55;100625.78;;;22.27;59.81
72548;BME280;60570;50.848;6.776;2023-09-08T04:01:56;100629.44;;;22.28;60.00
72548;BME280;60570;50.848;6.776;2023-09-08T04:02:56;100624.97;;;22.27;59.70
72548;BME280;60570;50.848;6.776;2023-09-08T04:03:58;100622.56;;;22.25;60.11
72548;BME280;60570;50.848;6.776;2023-09-08T04:04:58;100623.78;;;22.24;59.81
72548;BME280;60570;50.848;6.776;2023-09-08T04:06:00;100633.50;;;22.23;59.89
72548;BME280;60570;50.848;6.776;2023-09-08T04:07:01;100626.63;;;22.24;60.03
72548;BME280;60570;50.848;6.776;2023-09-08T04:08:02;100629.06;;;22.22;60.16
72548;BME280;60570;50.848;6.776;2023-09-08T04:09:03;100638.34;;;22.23;60.12
72548;BME280;60570;50.848;6.776;2023-09-08T04:10:05;100623.41;;;22.22;60.10
72548;BME280;60570;50.848;6.776;2023-09-08T04:11:06;100629.06;;;22.22;60.00
72548;BME280;60570;50.848;6.776;2023-09-08T04:12:07;100624.59;;;22.21;60.01
72548;BME280;60570;50.848;6.776;2023-09-08T04:13:09;100630.69;;;22.20;59.89
72548;BME280;60570;50.848;6.776;2023-09-08T04:14:12;100625.44;;;22.18;60.02
72548;BME280;60570;50.848;6.776;2023-09-08T04:15:12;100625.03;;;22.20;60.12
72548;BME280;60570;50.848;6.776;2023-09-08T04:16:14;100628.66;;;22.20;60.01
72548;BME280;60570;50.848;6.776;2023-09-08T04:17:14;100627.03;;;22.19;59.78
72548;BME280;60570;50.848;6.776;2023-09-08T04:18:16;100625.44;;;22.18;59.86
72548;BME280;60570;50.848;6.776;2023-09-08T04:19:16;100626.63;;;22.17;59.97
72548;BME280;60570;50.848;6.776;2023-09-08T04:20:18;100628.66;;;22.17;60.12
72548;BME280;60570;50.848;6.776;2023-09-08T04:21:18;100629.06;;;22.15;60.10
72548;BME280;60570;50.848;6.776;2023-09-08T04:22:20;100631.91;;;22.15;60.13
72548;BME280;60570;50.848;6.776;2023-09-08T04:23:20;100628.28;;;22.15;60.25
72548;BME280;60570;50.848;6.776;2023-09-08T04:24:22;100629.50;;;22.14;59.98
72548;BME280;60570;50.848;6.776;2023-09-08T04:25:22;100621.81;;;22.14;60.19
72548;BME280;60570;50.848;6.776;2023-09-08T04:26:25;100630.31;;;22.14;60.03
72548;BME280;60570;50.848;6.776;2023-09-08T04:27:25;100628.69;;;22.13;60.10
72548;BME280;60570;50.848;6.776;2023-09-08T04:28:27;100626.25;;;22.12;60.21
72548;BME280;60570;50.848;6.776;2023-09-08T04:29:29;100621.41;;;22.12;60.11
72548;BME280;60570;50.848;6.776;2023-09-08T04:30:30;100629.91;;;22.12;60.01
72548;BME280;60570;50.848;6.776;2023-09-08T04:31:31;100626.25;;;22.12;59.99
72548;BME280;60570;50.848;6.776;2023-09-08T04:32:32;100622.63;;;22.11;60.33
72548;BME280;60570;50.848;6.776;2023-09-08T04:33:33;100625.88;;;22.10;60.06
72548;BME280;60570;50.848;6.776;2023-09-08T04:34:36;100625.06;;;22.09;60.09
72548;BME280;60570;50.848;6.776;2023-09-08T04:35:36;100620.63;;;22.08;60.18
72548;BME280;60570;50.848;6.776;2023-09-08T04:36:38;100620.63;;;22.08;60.21
72548;BME280;60570;50.848;6.776;2023-09-08T04:37:38;100631.13;;;22.08;60.32
72548;BME280;60570;50.848;6.776;2023-09-08T04:38:40;100633.16;;;22.07;60.05
72548;BME280;60570;50.848;6.776;2023-09-08T04:39:42;100623.88;;;22.07;60.00
72548;BME280;60570;50.848;6.776;2023-09-08T04:40:44;100627.09;;;22.05;60.31
72548;BME280;60570;50.848;6.776;2023-09-08T04:41:45;100627.09;;;22.05;60.48
72548;BME280;60570;50.848;6.776;2023-09-08T04:42:46;100624.69;;;22.04;60.18
72548;BME280;60570;50.848;6.776;2023-09-08T04:43:47;100621.84;;;22.04;60.38
72548;BME280;60570;50.848;6.776;2023-09-08T04:44:49;100634.41;;;22.03;60.15
72548;BME280;60570;50.848;6.776;2023-09-08T04:45:50;100627.94;;;22.02;60.11
72548;BME280;60570;50.848;6.776;2023-09-08T04:46:51;100630.75;;;22.02;60.18
72548;BME280;60570;50.848;6.776;2023-09-08T04:47:52;100637.66;;;22.01;60.52
72548;BME280;60570;50.848;6.776;2023-09-08T04:48:53;100629.94;;;22.02;60.19
72548;BME280;60570;50.848;6.776;2023-09-08T04:49:54;100629.94;;;22.02;60.25
72548;BME280;60570;50.848;6.776;2023-09-08T04:51:57;100628.34;;;22.01;60.19
72548;BME280;60570;50.848;6.776;2023-09-08T04:52:57;100635.19;;;22.00;60.19
72548;BME280;60570;50.848;6.776;2023-09-08T04:53:59;100631.59;;;21.99;60.31
72548;BME280;60570;50.848;6.776;2023-09-08T04:54:59;100620.66;;;21.98;60.24
72548;BME280;60570;50.848;6.776;2023-09-08T04:56:01;100633.22;;;21.97;60.24
72548;BME280;60570;50.848;6.776;2023-09-08T04:57:01;100637.22;;;21.96;60.41
72548;BME280;60570;50.848;6.776;2023-09-08T04:58:03;100634.03;;;21.97;60.48
72548;BME280;60570;50.848;6.776;2023-09-08T04:59:03;100633.59;;;21.92;60.82
72548;BME280;60570;50.848;6.776;2023-09-08T05:00:07;100633.63;;;21.88;60.66
72548;BME280;60570;50.848;6.776;2023-09-08T05:01:10;100636.47;;;21.88;60.69
72548;BME280;60570;50.848;6.776;2023-09-08T05:02:12;100640.09;;;21.89;60.48
72548;BME280;60570;50.848;6.776;2023-09-08T05:03:12;100634.44;;;21.89;60.75
72548;BME280;60570;50.848;6.776;2023-09-08T05:04:14;100637.28;;;21.89;60.64
72548;BME280;60570;50.848;6.776;2023-09-08T05:05:14;100635.66;;;21.88;60.70
72548;BME280;60570;50.848;6.776;2023-09-08T05:06:16;100634.44;;;21.89;60.46
72548;BME280;60570;50.848;6.776;2023-09-08T05:07:17;100640.91;;;21.89;60.52
72548;BME280;60570;50.848;6.776;2023-09-08T05:08:19;100643.75;;;21.89;60.58
72548;BME280;60570;50.848;6.776;2023-09-08T05:09:19;100636.47;;;21.88;60.69
72548;BME280;60570;50.848;6.776;2023-09-08T05:10:21;100642.13;;;21.88;60.42
72548;BME280;60570;50.848;6.776;2023-09-08T05:11:22;100644.94;;;21.88;60.45
72548;BME280;60570;50.848;6.776;2023-09-08T05:12:23;100651.00;;;21.87;60.50
72548;BME280;60570;50.848;6.776;2023-09-08T05:13:24;100646.16;;;21.87;60.37
72548;BME280;60570;50.848;6.776;2023-09-08T05:14:27;100640.50;;;21.87;60.80
72548;BME280;60570;50.848;6.776;2023-09-08T05:15:29;100645.34;;;21.87;60.55
72548;BME280;60570;50.848;6.776;2023-09-08T05:16:31;100640.94;;;21.86;60.46
72548;BME280;60570;50.848;6.776;2023-09-08T05:17:37;100648.59;;;21.85;60.70
72548;BME280;60570;50.848;6.776;2023-09-08T05:18:39;100644.16;;;21.84;60.59
72548;BME280;60570;50.848;6.776;2023-09-08T05:19:40;100648.59;;;21.85;60.71
72548;BME280;60570;50.848;6.776;2023-09-08T05:20:41;100646.19;;;21.84;60.66
72548;BME280;60570;50.848;6.776;2023-09-08T05:21:42;100649.00;;;21.84;60.71
72548;BME280;60570;50.848;6.776;2023-09-08T05:22:43;100649.00;;;21.84;60.65
72548;BME280;60570;50.848;6.776;2023-09-08T05:23:45;100643.75;;;21.82;60.89